Time;durP1;ratioP1;P1;durP2;ratioP2;P2;SDS_P1;SDS_P2;PMS_P1;PMS_P2;Temp;Humidity;BMP_temperature;BMP_pressure;BME280_temperature;BME280_humidity;BME280_pressure;Samples;Min_cycle;Max_cycle;Signal;HPM_P1;HPM_P2
2023/12/04 00:01:19;;;;;;;22.03;10.63;;;;;;;;;;5053819;28;20203;-75
2023/12/04 00:03:45;;;;;;;26.33;10.60;;;;;;;;;;5063224;28;20206;-75
2023/12/04 00:06:12;;;;;;;25.40;10.80;;;;;;;;;;5060641;28;20666;-76
2023/12/04 00:08:38;;;;;;;28.30;11.60;;;;;;;;;;5058662;28;20183;-76
2023/12/04 00:11:04;;;;;;;23.53;10.73;;;;;;;;;;5063392;28;20209;-76
2023/12/04 00:13:30;;;;;;;19.23;8.53;;;;;;;;;;5059008;28;20220;-75
2023/12/04 00:15:56;;;;;;;20.80;9.93;;;;;;;;;;5065674;28;20698;-76
2023/12/04 00:18:22;;;;;;;22.50;10.60;;;;;;;;;;5061035;28;20647;-75
2023/12/04 00:20:48;;;;;;;26.17;11.03;;;;;;;;;;5059396;28;20167;-76
2023/12/04 00:23:14;;;;;;;24.30;10.77;;;;;;;;;;5060123;28;20243;-76
2023/12/04 00:25:40;;;;;;;27.90;11.50;;;;;;;;;;5063518;28;20205;-76
2023/12/04 00:28:06;;;;;;;25.17;11.23;;;;;;;;;;5058364;28;20207;-77
2023/12/04 00:30:32;;;;;;;18.17;9.07;;;;;;;;;;5061270;28;20344;-74
2023/12/04 00:32:58;;;;;;;23.03;10.77;;;;;;;;;;5060994;28;20233;-76
2023/12/04 00:35:24;;;;;;;24.17;10.60;;;;;;;;;;5060251;28;20220;-77
2023/12/04 00:37:50;;;;;;;23.57;10.87;;;;;;;;;;5058399;28;20220;-76
2023/12/04 00:40:16;;;;;;;27.47;12.03;;;;;;;;;;5060206;28;20201;-77
2023/12/04 00:42:42;;;;;;;25.93;11.47;;;;;;;;;;5058449;28;20207;-75
2023/12/04 00:45:09;;;;;;;22.47;10.93;;;;;;;;;;5062052;28;20199;-75
2023/12/04 00:47:35;;;;;;;22.40;10.77;;;;;;;;;;5059207;28;20172;-76
2023/12/04 00:50:01;;;;;;;25.13;11.40;;;;;;;;;;5061147;28;20196;-76
2023/12/04 00:52:27;;;;;;;27.57;10.73;;;;;;;;;;5058386;28;20235;-75
2023/12/04 00:54:53;;;;;;;28.70;11.20;;;;;;;;;;5059421;28;20203;-75
2023/12/04 00:57:19;;;;;;;26.90;11.10;;;;;;;;;;5058609;28;20312;-75
2023/12/04 00:59:45;;;;;;;27.13;10.60;;;;;;;;;;5059751;28;20561;-75
2023/12/04 01:02:11;;;;;;;21.40;11.40;;;;;;;;;;5057309;28;20207;-75
2023/12/04 01:04:41;;;;;;;23.60;10.67;;;;;;;;;;5061174;28;20216;-76
2023/12/04 01:07:07;;;;;;;22.53;11.03;;;;;;;;;;5055783;28;20240;-76
2023/12/04 01:09:35;;;;;;;23.73;12.63;;;;;;;;;;5060182;28;20769;-77
2023/12/04 01:12:01;;;;;;;25.70;10.83;;;;;;;;;;5061152;28;20210;-76
2023/12/04 01:14:27;;;;;;;25.47;11.27;;;;;;;;;;5059163;28;20720;-76
2023/12/04 01:16:53;;;;;;;29.03;12.70;;;;;;;;;;5059850;28;20248;-76
2023/12/04 01:19:19;;;;;;;28.47;11.80;;;;;;;;;;5059147;28;20202;-76
2023/12/04 01:21:45;;;;;;;25.63;11.63;;;;;;;;;;5057492;28;20204;-75
2023/12/04 01:24:11;;;;;;;26.00;11.53;;;;;;;;;;5061494;28;20196;-76
2023/12/04 01:26:37;;;;;;;26.30;11.07;;;;;;;;;;5058419;28;20195;-78
2023/12/04 01:29:04;;;;;;;28.27;12.90;;;;;;;;;;5061634;28;20298;-75
2023/12/04 01:31:30;;;;;;;22.40;10.53;;;;;;;;;;5059790;28;20220;-76
2023/12/04 01:33:56;;;;;;;23.43;10.67;;;;;;;;;;5058514;28;20223;-76
2023/12/04 01:36:22;;;;;;;27.33;10.97;;;;;;;;;;5060223;28;20583;-76
2023/12/04 01:38:48;;;;;;;25.60;11.97;;;;;;;;;;5065043;28;20184;-76
2023/12/04 01:41:14;;;;;;;22.33;9.93;;;;;;;;;;5055014;28;20201;-76
2023/12/04 01:43:40;;;;;;;25.13;10.70;;;;;;;;;;5060517;28;20289;-76
2023/12/04 01:46:07;;;;;;;23.53;10.93;;;;;;;;;;5059304;28;21183;-77
2023/12/04 01:48:33;;;;;;;26.30;11.40;;;;;;;;;;5056549;28;20599;-75
2023/12/04 01:51:01;;;;;;;26.33;10.73;;;;;;;;;;5055854;28;20184;-75
2023/12/04 01:53:27;;;;;;;26.50;10.77;;;;;;;;;;5058242;28;20230;-76
2023/12/04 01:55:53;;;;;;;26.63;11.23;;;;;;;;;;5059235;28;20624;-77
2023/12/04 01:58:19;;;;;;;25.40;11.10;;;;;;;;;;5058864;28;20198;-73
2023/12/04 02:00:46;;;;;;;21.57;10.70;;;;;;;;;;5058059;28;20233;-76
2023/12/04 02:03:12;;;;;;;25.30;11.53;;;;;;;;;;5057695;28;20468;-75
2023/12/04 02:05:38;;;;;;;25.87;10.90;;;;;;;;;;5059425;28;20643;-76
2023/12/04 02:08:04;;;;;;;27.77;12.50;;;;;;;;;;5055259;28;20205;-76
2023/12/04 02:10:30;;;;;;;25.63;11.17;;;;;;;;;;5060280;28;20725;-76
2023/12/04 02:12:57;;;;;;;31.57;12.23;;;;;;;;;;5057702;28;20289;-75
2023/12/04 02:15:23;;;;;;;24.33;11.57;;;;;;;;;;5060862;28;20223;-75
2023/12/04 02:17:49;;;;;;;26.07;12.20;;;;;;;;;;5062046;28;20231;-74
2023/12/04 02:20:17;;;;;;;22.73;10.53;;;;;;;;;;5056353;28;20713;-75
2023/12/04 02:22:43;;;;;;;24.80;10.40;;;;;;;;;;5057339;28;20207;-73
2023/12/04 02:25:10;;;;;;;25.20;11.67;;;;;;;;;;5059906;28;20209;-76
2023/12/04 02:27:45;;;;;;;26.77;12.17;;;;;;;;;;5053939;28;20233;-76
2023/12/04 02:30:13;;;;;;;24.03;10.97;;;;;;;;;;5072634;28;20187;-76
2023/12/04 02:32:41;;;;;;;22.67;11.67;;;;;;;;;;5058471;28;20643;-76
2023/12/04 02:35:09;;;;;;;27.00;11.97;;;;;;;;;;5061769;28;20238;-76
2023/12/04 02:37:35;;;;;;;21.73;10.90;;;;;;;;;;5055007;28;20248;-77
2023/12/04 02:40:01;;;;;;;25.33;11.67;;;;;;;;;;5060269;28;20219;-76
2023/12/04 02:42:27;;;;;;;25.87;10.40;;;;;;;;;;5058922;28;20198;-76
2023/12/04 02:44:53;;;;;;;24.00;10.53;;;;;;;;;;5062072;28;20677;-76
2023/12/04 02:47:20;;;;;;;27.80;12.30;;;;;;;;;;5057795;28;20208;-75
2023/12/04 02:49:46;;;;;;;22.83;11.23;;;;;;;;;;5055241;28;20207;-76
2023/12/04 02:52:12;;;;;;;25.17;10.93;;;;;;;;;;5054254;28;20228;-75
2023/12/04 02:54:38;;;;;;;25.37;12.20;;;;;;;;;;5055951;28;20219;-76
2023/12/04 02:57:04;;;;;;;22.70;10.20;;;;;;;;;;5060602;28;20200;-76
2023/12/04 02:59:30;;;;;;;23.23;11.33;;;;;;;;;;5063858;28;20215;-76
2023/12/04 03:01:56;;;;;;;24.30;10.53;;;;;;;;;;5064394;28;20207;-75
2023/12/04 03:04:22;;;;;;;32.30;12.00;;;;;;;;;;5062065;28;20874;-73
2023/12/04 03:06:48;;;;;;;21.90;10.00;;;;;;;;;;5062245;28;20224;-75
2023/12/04 03:09:14;;;;;;;23.37;10.27;;;;;;;;;;5060981;28;20181;-76
2023/12/04 03:11:40;;;;;;;27.47;11.73;;;;;;;;;;5048481;28;20193;-75
2023/12/04 03:14:07;;;;;;;27.57;11.03;;;;;;;;;;5057577;28;20221;-76
2023/12/04 03:16:33;;;;;;;25.60;10.13;;;;;;;;;;5058504;28;20232;-76
2023/12/04 03:18:59;;;;;;;24.33;10.53;;;;;;;;;;5062419;28;20923;-75
2023/12/04 03:21:25;;;;;;;22.40;10.33;;;;;;;;;;5058598;28;20179;-75
2023/12/04 03:23:51;;;;;;;24.70;10.70;;;;;;;;;;5059743;28;20194;-75
2023/12/04 03:26:17;;;;;;;22.33;9.27;;;;;;;;;;5059866;28;20204;-76
2023/12/04 03:28:43;;;;;;;23.70;10.67;;;;;;;;;;5059030;28;20234;-75
2023/12/04 03:31:09;;;;;;;17.17;8.50;;;;;;;;;;5059691;28;20199;-76
2023/12/04 03:33:35;;;;;;;22.43;8.73;;;;;;;;;;5072658;28;20315;-74
2023/12/04 03:36:01;;;;;;;19.70;9.03;;;;;;;;;;5061389;28;20328;-75
2023/12/04 03:38:27;;;;;;;24.00;11.03;;;;;;;;;;5060535;28;20227;-75
2023/12/04 03:40:53;;;;;;;25.70;9.80;;;;;;;;;;5058339;28;20761;-75
2023/12/04 03:43:19;;;;;;;21.03;10.20;;;;;;;;;;5057337;28;20204;-75
2023/12/04 03:45:45;;;;;;;20.97;10.33;;;;;;;;;;5057101;28;20204;-75
2023/12/04 03:48:11;;;;;;;26.03;11.10;;;;;;;;;;5060321;28;20180;-75
2023/12/04 03:50:37;;;;;;;22.47;10.37;;;;;;;;;;5059624;28;20658;-75
2023/12/04 03:53:03;;;;;;;22.13;10.30;;;;;;;;;;5055785;28;20291;-75
2023/12/04 03:55:29;;;;;;;23.10;10.40;;;;;;;;;;5059282;28;20216;-75
2023/12/04 03:57:55;;;;;;;25.57;10.03;;;;;;;;;;5056876;28;20570;-76
2023/12/04 04:00:22;;;;;;;23.23;9.87;;;;;;;;;;5057570;28;20229;-76
2023/12/04 04:02:48;;;;;;;21.77;9.50;;;;;;;;;;5057631;28;20199;-75
2023/12/04 04:05:14;;;;;;;20.17;9.67;;;;;;;;;;5075339;28;20203;-76
2023/12/04 04:07:41;;;;;;;26.57;10.50;;;;;;;;;;5055895;28;20239;-76
2023/12/04 04:10:07;;;;;;;23.17;9.63;;;;;;;;;;5059254;28;20212;-75
2023/12/04 04:12:33;;;;;;;26.13;10.63;;;;;;;;;;5054848;28;20326;-76
2023/12/04 04:14:59;;;;;;;24.13;10.57;;;;;;;;;;5058575;28;20207;-76
2023/12/04 04:17:26;;;;;;;28.50;10.90;;;;;;;;;;5061845;28;20220;-73
2023/12/04 04:19:55;;;;;;;24.43;10.23;;;;;;;;;;5055515;28;20695;-77
2023/12/04 04:22:21;;;;;;;24.37;10.00;;;;;;;;;;5059302;28;20211;-76
2023/12/04 04:24:47;;;;;;;20.23;9.37;;;;;;;;;;5058716;28;20207;-76
2023/12/04 04:27:13;;;;;;;20.97;10.50;;;;;;;;;;5056564;28;20226;-76
2023/12/04 04:29:39;;;;;;;22.43;10.67;;;;;;;;;;5058673;28;20179;-72
2023/12/04 04:32:05;;;;;;;28.27;11.33;;;;;;;;;;5055182;28;20215;-75
2023/12/04 04:34:31;;;;;;;19.93;9.53;;;;;;;;;;5057177;28;20228;-75
2023/12/04 04:36:58;;;;;;;24.57;9.93;;;;;;;;;;5058717;28;20273;-75
2023/12/04 04:39:24;;;;;;;22.63;10.30;;;;;;;;;;5055889;28;20182;-76
2023/12/04 04:41:50;;;;;;;24.03;8.90;;;;;;;;;;5053754;28;20552;-75
2023/12/04 04:44:16;;;;;;;22.50;9.83;;;;;;;;;;5058902;28;20217;-74
2023/12/04 04:46:42;;;;;;;20.37;9.20;;;;;;;;;;5054995;28;20242;-75
2023/12/04 04:49:07;;;;;;;19.63;9.00;;;;;;;;;;5057830;28;20218;-74
2023/12/04 04:51:34;;;;;;;21.73;10.47;;;;;;;;;;5061670;28;20219;-75
2023/12/04 04:54:03;;;;;;;18.27;9.33;;;;;;;;;;5059574;28;20268;-75
2023/12/04 04:56:30;;;;;;;18.33;8.63;;;;;;;;;;5076839;28;20218;-73
2023/12/04 04:58:56;;;;;;;23.67;9.30;;;;;;;;;;5053297;28;20205;-74
2023/12/04 05:01:22;;;;;;;26.75;12.45;;;;;;;;;;5057779;28;20408;-76
2023/12/04 05:03:48;;;;;;;22.47;11.70;;;;;;;;;;5059576;28;20247;-75
2023/12/04 05:06:14;;;;;;;26.50;9.80;;;;;;;;;;5056676;28;20203;-76
2023/12/04 05:08:40;;;;;;;23.30;9.43;;;;;;;;;;5056578;28;20185;-75
2023/12/04 05:11:06;;;;;;;21.90;8.87;;;;;;;;;;5059141;28;20207;-76
2023/12/04 05:13:32;;;;;;;20.60;9.43;;;;;;;;;;5055316;28;20235;-73
2023/12/04 05:15:58;;;;;;;19.30;9.47;;;;;;;;;;5057462;28;20255;-75
2023/12/04 05:18:24;;;;;;;21.63;8.37;;;;;;;;;;5052569;28;20293;-75
2023/12/04 05:20:50;;;;;;;19.60;8.97;;;;;;;;;;5053817;28;20179;-75
2023/12/04 05:23:16;;;;;;;25.80;9.60;;;;;;;;;;5059706;28;20705;-76
2023/12/04 05:25:42;;;;;;;25.37;9.07;;;;;;;;;;5057139;28;20221;-76
2023/12/04 05:28:08;;;;;;;18.03;8.90;;;;;;;;;;5061255;28;20209;-75
2023/12/04 05:30:35;;;;;;;20.00;8.50;;;;;;;;;;5056464;28;20222;-74
2023/12/04 05:33:01;;;;;;;19.97;9.67;;;;;;;;;;5067801;28;20221;-75
2023/12/04 05:35:28;;;;;;;20.73;7.87;;;;;;;;;;5057083;28;20242;-76
2023/12/04 05:37:54;;;;;;;20.53;8.63;;;;;;;;;;5058515;28;20223;-75
2023/12/04 05:40:20;;;;;;;18.23;8.00;;;;;;;;;;5057873;28;20268;-76
2023/12/04 05:42:46;;;;;;;16.87;8.33;;;;;;;;;;5053590;28;20219;-76
2023/12/04 05:45:12;;;;;;;16.77;8.20;;;;;;;;;;5057165;28;20554;-77
2023/12/04 05:47:38;;;;;;;18.07;8.17;;;;;;;;;;5054919;28;20237;-75
2023/12/04 05:50:04;;;;;;;18.30;8.47;;;;;;;;;;5057433;28;20220;-76
2023/12/04 05:52:30;;;;;;;18.57;9.00;;;;;;;;;;5058728;28;20214;-76
2023/12/04 05:54:56;;;;;;;20.73;8.90;;;;;;;;;;5058490;28;20227;-75
2023/12/04 05:57:22;;;;;;;22.80;8.67;;;;;;;;;;5059184;28;20219;-75
2023/12/04 05:59:48;;;;;;;18.00;8.63;;;;;;;;;;5054345;28;20298;-75
2023/12/04 06:02:15;;;;;;;20.60;9.43;;;;;;;;;;5055700;28;20689;-75
2023/12/04 06:04:41;;;;;;;20.07;8.53;;;;;;;;;;5051911;28;20238;-74
2023/12/04 06:07:07;;;;;;;19.40;9.23;;;;;;;;;;5057593;28;20212;-76
2023/12/04 06:09:33;;;;;;;20.60;8.27;;;;;;;;;;5049703;28;20310;-76
2023/12/04 06:12:04;;;;;;;20.07;8.87;;;;;;;;;;5024497;28;20337;-75
2023/12/04 06:14:30;;;;;;;21.40;8.90;;;;;;;;;;5031272;28;20350;-76
2023/12/04 06:16:56;;;;;;;24.87;9.23;;;;;;;;;;5029977;28;21074;-74
2023/12/04 06:19:22;;;;;;;18.70;9.63;;;;;;;;;;5031112;28;20234;-75
2023/12/04 06:21:48;;;;;;;17.83;8.97;;;;;;;;;;5026397;28;20242;-74
2023/12/04 06:24:14;;;;;;;20.83;8.80;;;;;;;;;;5022546;28;20732;-75
2023/12/04 06:26:43;;;;;;;21.20;9.30;;;;;;;;;;5043342;28;20194;-75
2023/12/04 06:29:09;;;;;;;21.47;8.67;;;;;;;;;;5049307;28;20207;-74
2023/12/04 06:31:35;;;;;;;16.80;7.80;;;;;;;;;;5055082;28;20207;-75
2023/12/04 06:34:01;;;;;;;21.80;9.03;;;;;;;;;;5057597;28;20224;-75
2023/12/04 06:36:30;;;;;;;19.90;8.87;;;;;;;;;;5073656;28;20299;-76
2023/12/04 06:38:56;;;;;;;20.10;8.63;;;;;;;;;;5056402;28;20191;-75
2023/12/04 06:41:22;;;;;;;17.57;8.03;;;;;;;;;;5060220;28;20286;-74
2023/12/04 06:43:49;;;;;;;20.10;8.30;;;;;;;;;;5052563;28;20247;-76
2023/12/04 06:46:15;;;;;;;19.63;9.30;;;;;;;;;;5059900;28;20211;-75
2023/12/04 06:48:42;;;;;;;18.80;8.07;;;;;;;;;;5057451;28;20689;-73
2023/12/04 06:51:08;;;;;;;17.43;7.53;;;;;;;;;;5054527;28;20259;-74
2023/12/04 06:53:34;;;;;;;21.10;9.27;;;;;;;;;;5073629;28;20249;-74
2023/12/04 06:56:00;;;;;;;22.53;8.70;;;;;;;;;;5045702;28;20225;-74
2023/12/04 06:58:26;;;;;;;20.17;8.90;;;;;;;;;;5043157;28;20611;-74
2023/12/04 07:00:53;;;;;;;14.80;8.00;;;;;;;;;;5042121;28;20234;-74
2023/12/04 07:03:19;;;;;;;15.13;8.20;;;;;;;;;;5057830;28;20677;-76
2023/12/04 07:05:45;;;;;;;18.07;8.10;;;;;;;;;;5053942;28;20171;-74
2023/12/04 07:08:11;;;;;;;17.00;8.37;;;;;;;;;;5056207;28;20205;-75
2023/12/04 07:10:37;;;;;;;18.53;7.20;;;;;;;;;;5060510;28;20224;-76
2023/12/04 07:13:03;;;;;;;21.53;9.67;;;;;;;;;;5074445;28;20686;-75
2023/12/04 07:15:29;;;;;;;19.73;9.43;;;;;;;;;;5058020;28;20298;-72
2023/12/04 07:17:55;;;;;;;18.20;8.27;;;;;;;;;;5056823;28;20290;-75
2023/12/04 07:20:23;;;;;;;18.43;8.40;;;;;;;;;;5053952;28;20197;-76
2023/12/04 07:22:49;;;;;;;19.33;7.50;;;;;;;;;;5053986;28;20280;-76
2023/12/04 07:25:16;;;;;;;19.70;9.03;;;;;;;;;;5059638;28;20239;-75
2023/12/04 07:27:42;;;;;;;16.93;8.60;;;;;;;;;;5057994;28;20684;-74
2023/12/04 07:30:08;;;;;;;18.03;8.10;;;;;;;;;;5058380;28;20177;-75
2023/12/04 07:32:35;;;;;;;20.50;10.00;;;;;;;;;;5060009;28;20186;-75
2023/12/04 07:35:01;;;;;;;18.23;8.87;;;;;;;;;;5057014;28;20227;-73
2023/12/04 07:37:27;;;;;;;18.07;8.33;;;;;;;;;;5058760;28;20702;-75
2023/12/04 07:39:53;;;;;;;17.90;8.83;;;;;;;;;;5056434;28;20217;-75
2023/12/04 07:42:19;;;;;;;15.20;7.67;;;;;;;;;;5058313;28;20271;-74
2023/12/04 07:44:45;;;;;;;20.27;7.97;;;;;;;;;;5061705;28;20287;-75
2023/12/04 07:47:11;;;;;;;18.80;8.63;;;;;;;;;;5060779;28;20272;-75
2023/12/04 07:49:37;;;;;;;18.00;8.63;;;;;;;;;;5058353;28;20207;-75
2023/12/04 07:52:03;;;;;;;19.70;9.60;;;;;;;;;;5060158;28;20691;-74
2023/12/04 07:54:29;;;;;;;17.20;8.47;;;;;;;;;;5063625;28;20212;-75
2023/12/04 07:56:55;;;;;;;16.07;8.23;;;;;;;;;;5061737;28;20207;-74
2023/12/04 07:59:21;;;;;;;15.33;7.80;;;;;;;;;;5061834;28;20206;-75
2023/12/04 08:01:47;;;;;;;15.57;7.70;;;;;;;;;;5061122;28;20212;-74
2023/12/04 08:04:13;;;;;;;15.20;7.47;;;;;;;;;;5060376;28;20261;-75
2023/12/04 08:06:39;;;;;;;17.27;7.50;;;;;;;;;;5061743;28;20575;-74
2023/12/04 08:09:09;;;;;;;16.30;8.47;;;;;;;;;;5076606;28;20172;-74
2023/12/04 08:11:35;;;;;;;16.50;7.00;;;;;;;;;;5063021;28;20208;-74
2023/12/04 08:14:01;;;;;;;14.73;7.70;;;;;;;;;;5060371;28;20835;-75
2023/12/04 08:16:28;;;;;;;17.43;8.80;;;;;;;;;;5061995;28;20841;-74
2023/12/04 08:18:54;;;;;;;17.17;8.97;;;;;;;;;;5058683;28;20218;-75
2023/12/04 08:21:21;;;;;;;19.07;9.10;;;;;;;;;;5054576;28;20589;-74
2023/12/04 08:23:47;;;;;;;17.43;8.57;;;;;;;;;;5065282;28;20204;-75
2023/12/04 08:26:13;;;;;;;15.37;8.60;;;;;;;;;;5060303;28;20261;-76
2023/12/04 08:28:41;;;;;;;17.03;7.30;;;;;;;;;;5058777;28;20212;-75
2023/12/04 08:31:10;;;;;;;17.80;8.30;;;;;;;;;;5077196;28;20213;-75
2023/12/04 08:33:36;;;;;;;19.83;8.17;;;;;;;;;;5064700;28;20237;-75
2023/12/04 08:36:02;;;;;;;18.27;7.87;;;;;;;;;;5060743;28;20661;-77
2023/12/04 08:38:28;;;;;;;17.33;9.33;;;;;;;;;;5055788;28;20244;-76
2023/12/04 08:40:54;;;;;;;14.53;8.23;;;;;;;;;;5062439;28;20755;-76
2023/12/04 08:43:20;;;;;;;17.83;8.00;;;;;;;;;;5060815;28;20297;-76
2023/12/04 08:45:46;;;;;;;12.93;6.63;;;;;;;;;;5060129;28;20207;-76
2023/12/04 08:48:12;;;;;;;16.13;7.73;;;;;;;;;;5057103;28;20181;-76
2023/12/04 08:50:38;;;;;;;18.13;7.77;;;;;;;;;;5059346;28;20255;-75
2023/12/04 08:53:05;;;;;;;13.63;7.77;;;;;;;;;;5055373;28;20221;-76
2023/12/04 08:55:31;;;;;;;18.37;7.97;;;;;;;;;;5060640;28;20726;-74
2023/12/04 08:57:57;;;;;;;17.03;9.07;;;;;;;;;;5058762;28;20743;-76
2023/12/04 09:00:23;;;;;;;16.47;8.80;;;;;;;;;;5057997;28;20738;-73
2023/12/04 09:02:49;;;;;;;17.87;7.57;;;;;;;;;;5062114;28;20177;-76
2023/12/04 09:05:15;;;;;;;16.10;8.53;;;;;;;;;;5057577;28;20229;-76
2023/12/04 09:07:41;;;;;;;14.90;7.80;;;;;;;;;;5063346;28;20214;-75
2023/12/04 09:10:07;;;;;;;16.20;8.03;;;;;;;;;;5060226;28;20223;-76
2023/12/04 09:12:35;;;;;;;14.97;7.53;;;;;;;;;;5058364;28;20240;-76
2023/12/04 09:15:01;;;;;;;16.27;7.63;;;;;;;;;;5058355;28;20200;-75
2023/12/04 09:17:27;;;;;;;13.83;7.93;;;;;;;;;;5060208;28;20219;-76
2023/12/04 09:19:54;;;;;;;14.37;7.33;;;;;;;;;;5055473;28;20280;-77
2023/12/04 09:22:20;;;;;;;14.03;7.07;;;;;;;;;;5076347;28;20204;-76
2023/12/04 09:24:46;;;;;;;15.80;7.40;;;;;;;;;;5059779;28;20221;-76
2023/12/04 09:27:12;;;;;;;15.83;8.20;;;;;;;;;;5059511;28;20192;-76
2023/12/04 09:29:38;;;;;;;13.97;7.00;;;;;;;;;;5060218;28;20189;-76
2023/12/04 09:32:04;;;;;;;20.30;8.83;;;;;;;;;;5059016;28;20307;-76
2023/12/04 09:34:30;;;;;;;15.00;8.23;;;;;;;;;;5061936;28;20273;-76
2023/12/04 09:36:56;;;;;;;18.30;7.87;;;;;;;;;;5057970;28;20221;-73
2023/12/04 09:39:22;;;;;;;16.03;7.60;;;;;;;;;;5059374;28;20581;-76
2023/12/04 09:41:48;;;;;;;16.67;7.93;;;;;;;;;;5060414;28;20231;-76
2023/12/04 09:44:15;;;;;;;17.13;7.47;;;;;;;;;;5064570;28;20286;-76
2023/12/04 09:46:41;;;;;;;16.80;8.27;;;;;;;;;;5055582;28;20210;-76
2023/12/04 09:49:08;;;;;;;15.67;7.33;;;;;;;;;;5055994;28;20212;-75
2023/12/04 09:51:34;;;;;;;16.93;7.60;;;;;;;;;;5054332;28;20215;-77
2023/12/04 09:54:03;;;;;;;14.90;7.63;;;;;;;;;;5060868;28;20196;-76
2023/12/04 09:56:30;;;;;;;14.93;7.57;;;;;;;;;;5058198;28;20579;-76
2023/12/04 09:58:59;;;;;;;14.10;7.13;;;;;;;;;;5062699;28;20301;-76
2023/12/04 10:01:26;;;;;;;15.00;7.60;;;;;;;;;;5066684;28;20203;-76
2023/12/04 10:03:52;;;;;;;15.27;7.37;;;;;;;;;;5059275;28;20596;-76
2023/12/04 10:06:18;;;;;;;17.87;9.10;;;;;;;;;;5055911;28;20216;-75
2023/12/04 10:08:44;;;;;;;13.90;7.23;;;;;;;;;;5062514;28;20183;-75
2023/12/04 10:11:10;;;;;;;15.03;7.67;;;;;;;;;;5073711;28;20248;-75
2023/12/04 10:13:36;;;;;;;15.97;7.70;;;;;;;;;;5057997;28;20702;-75
2023/12/04 10:16:03;;;;;;;18.27;8.50;;;;;;;;;;5060018;28;20227;-76
2023/12/04 10:18:30;;;;;;;16.40;7.50;;;;;;;;;;5059053;28;20204;-77
2023/12/04 10:20:56;;;;;;;15.80;7.13;;;;;;;;;;5053600;28;20240;-75
2023/12/04 10:23:22;;;;;;;16.57;7.60;;;;;;;;;;5057410;28;20677;-77
2023/12/04 10:25:52;;;;;;;15.37;7.67;;;;;;;;;;5076952;28;20209;-75
2023/12/04 10:28:18;;;;;;;12.87;7.43;;;;;;;;;;5059426;28;20309;-75
2023/12/04 10:30:45;;;;;;;13.80;7.53;;;;;;;;;;5069133;28;20698;-74
2023/12/04 10:33:13;;;;;;;15.13;8.00;;;;;;;;;;5061728;28;20188;-74
2023/12/04 10:35:40;;;;;;;12.93;6.57;;;;;;;;;;5061213;28;20195;-76
2023/12/04 10:38:07;;;;;;;14.43;7.20;;;;;;;;;;5058028;28;20229;-75
2023/12/04 10:40:34;;;;;;;13.47;6.40;;;;;;;;;;5068040;28;20214;-76
2023/12/04 10:43:20;;;;;;;13.60;7.73;;;;;;;;;;5058595;28;20224;-76
2023/12/04 10:45:47;;;;;;;14.10;6.80;;;;;;;;;;5038336;28;20220;-75
2023/12/04 10:48:14;;;;;;;12.97;7.20;;;;;;;;;;5059870;28;20182;-76
2023/12/04 10:50:41;;;;;;;15.07;8.17;;;;;;;;;;5054366;28;20179;-75
2023/12/04 10:53:07;;;;;;;16.13;7.80;;;;;;;;;;5056848;28;20218;-76
2023/12/04 10:55:33;;;;;;;14.23;8.13;;;;;;;;;;5059819;28;20325;-76
2023/12/04 10:58:05;;;;;;;15.73;8.10;;;;;;;;;;5056191;28;20282;-77
2023/12/04 11:00:33;;;;;;;13.47;6.77;;;;;;;;;;5058554;28;20218;-77
2023/12/04 11:03:03;;;;;;;11.93;7.47;;;;;;;;;;5058561;28;20276;-77
2023/12/04 11:05:29;;;;;;;14.73;8.53;;;;;;;;;;5055751;28;20301;-77
2023/12/04 11:08:01;;;;;;;16.50;6.97;;;;;;;;;;5058141;28;20212;-77
2023/12/04 11:10:28;;;;;;;12.53;6.57;;;;;;;;;;5056332;28;20575;-77
2023/12/04 11:13:03;;;;;;;17.70;7.57;;;;;;;;;;5057116;28;20709;-77
2023/12/04 11:15:30;;;;;;;13.87;6.27;;;;;;;;;;5057150;28;20238;-77
2023/12/04 11:18:02;;;;;;;16.13;7.50;;;;;;;;;;5064558;28;20207;-77
2023/12/04 11:20:30;;;;;;;14.83;6.73;;;;;;;;;;5070954;28;20643;-77
2023/12/04 11:22:57;;;;;;;14.17;6.90;;;;;;;;;;5062659;28;20680;-77
2023/12/04 11:25:24;;;;;;;13.90;7.50;;;;;;;;;;5057876;28;20275;-77
2023/12/04 11:27:51;;;;;;;13.30;6.27;;;;;;;;;;5061842;28;20215;-76
2023/12/04 11:30:17;;;;;;;13.03;6.90;;;;;;;;;;5059929;28;20651;-76
2023/12/04 11:32:46;;;;;;;14.33;7.13;;;;;;;;;;5072235;28;20186;-76
2023/12/04 11:35:14;;;;;;;13.87;7.30;;;;;;;;;;5061316;28;20771;-75
2023/12/04 11:37:40;;;;;;;15.20;7.07;;;;;;;;;;5060309;28;20249;-74
2023/12/04 11:40:07;;;;;;;15.90;7.07;;;;;;;;;;5077973;28;20208;-75
2023/12/04 11:42:33;;;;;;;13.13;7.70;;;;;;;;;;5061282;28;20566;-75
2023/12/04 11:44:59;;;;;;;14.83;6.93;;;;;;;;;;5065107;28;20686;-75
2023/12/04 11:47:25;;;;;;;13.20;7.20;;;;;;;;;;5081069;28;20213;-75
2023/12/04 11:49:51;;;;;;;14.53;6.77;;;;;;;;;;5057752;28;20324;-76
2023/12/04 11:52:17;;;;;;;14.40;7.67;;;;;;;;;;5061373;28;20234;-76
2023/12/04 11:54:57;;;;;;;15.53;7.37;;;;;;;;;;5060991;28;20713;-75
2023/12/04 11:57:25;;;;;;;9.17;5.93;;;;;;;;;;5061614;28;20209;-76
2023/12/04 11:59:51;;;;;;;15.67;7.77;;;;;;;;;;5064905;28;20183;-76
2023/12/04 12:02:17;;;;;;;13.03;6.23;;;;;;;;;;5060705;28;20214;-76
2023/12/04 12:04:45;;;;;;;14.10;7.70;;;;;;;;;;5059917;28;20207;-76
2023/12/04 12:07:11;;;;;;;17.97;8.37;;;;;;;;;;5060678;28;20205;-75
2023/12/04 12:09:37;;;;;;;11.77;6.50;;;;;;;;;;5060431;28;20208;-76
2023/12/04 12:12:04;;;;;;;12.83;6.57;;;;;;;;;;5057703;28;20181;-75
2023/12/04 12:14:30;;;;;;;12.70;6.67;;;;;;;;;;5060776;28;20226;-75
2023/12/04 12:16:58;;;;;;;14.57;6.33;;;;;;;;;;5079250;28;20207;-76
2023/12/04 12:19:24;;;;;;;13.53;7.07;;;;;;;;;;5056434;28;20593;-76
2023/12/04 12:21:51;;;;;;;15.23;7.23;;;;;;;;;;5049715;28;20199;-75
2023/12/04 12:24:18;;;;;;;13.97;7.03;;;;;;;;;;5059258;28;20194;-76
2023/12/04 12:26:44;;;;;;;12.00;6.47;;;;;;;;;;5068551;28;20190;-75
2023/12/04 12:29:11;;;;;;;11.37;6.70;;;;;;;;;;5062624;28;20588;-76
2023/12/04 12:31:37;;;;;;;15.60;7.27;;;;;;;;;;5059209;28;20234;-76
2023/12/04 12:34:03;;;;;;;14.50;6.83;;;;;;;;;;5061821;28;20749;-76
2023/12/04 12:36:29;;;;;;;11.97;6.13;;;;;;;;;;5072533;28;20250;-74
2023/12/04 12:38:56;;;;;;;12.27;6.70;;;;;;;;;;5058880;28;20234;-76
2023/12/04 12:41:22;;;;;;;14.47;7.03;;;;;;;;;;5061557;28;20214;-74
2023/12/04 12:43:52;;;;;;;12.03;7.40;;;;;;;;;;5069751;28;20222;-75
2023/12/04 12:46:18;;;;;;;11.10;7.00;;;;;;;;;;5058969;28;20706;-75
2023/12/04 12:48:44;;;;;;;12.30;6.50;;;;;;;;;;5063562;28;20211;-76
2023/12/04 12:51:11;;;;;;;15.50;7.20;;;;;;;;;;5056666;28;20171;-75
2023/12/04 12:53:37;;;;;;;13.23;7.30;;;;;;;;;;5062606;28;20237;-76
2023/12/04 12:56:04;;;;;;;13.57;7.10;;;;;;;;;;5056489;28;20653;-76
2023/12/04 12:58:30;;;;;;;15.03;7.07;;;;;;;;;;5057001;28;20294;-76
2023/12/04 13:00:56;;;;;;;12.27;7.00;;;;;;;;;;5058613;28;20703;-76
2023/12/04 13:03:22;;;;;;;13.97;8.07;;;;;;;;;;5057586;28;20287;-76
2023/12/04 13:05:48;;;;;;;11.90;6.30;;;;;;;;;;5063571;28;20171;-76
2023/12/04 13:08:18;;;;;;;12.63;6.60;;;;;;;;;;5059818;28;20206;-76
2023/12/04 13:10:44;;;;;;;15.00;8.97;;;;;;;;;;5076364;28;20206;-75
2023/12/04 13:13:13;;;;;;;13.63;6.57;;;;;;;;;;5060828;28;20244;-77
2023/12/04 13:15:41;;;;;;;10.03;4.73;;;;;;;;;;5074598;28;20207;-76
2023/12/04 13:18:07;;;;;;;15.73;6.80;;;;;;;;;;5062622;28;20674;-76
2023/12/04 13:20:34;;;;;;;13.33;6.63;;;;;;;;;;5054242;28;20213;-74
2023/12/04 13:23:00;;;;;;;13.63;6.17;;;;;;;;;;5058376;28;20222;-76
2023/12/04 13:25:26;;;;;;;13.43;7.10;;;;;;;;;;5059896;28;20200;-75
2023/12/04 13:27:52;;;;;;;13.17;6.87;;;;;;;;;;5060751;28;20537;-75
2023/12/04 13:30:18;;;;;;;17.07;6.77;;;;;;;;;;5059980;28;20193;-75
2023/12/04 13:32:45;;;;;;;15.53;7.93;;;;;;;;;;5059956;28;20531;-74
2023/12/04 13:35:11;;;;;;;13.07;7.03;;;;;;;;;;5059192;28;20268;-75
2023/12/04 13:37:39;;;;;;;11.97;6.50;;;;;;;;;;5059620;28;20232;-75
2023/12/04 13:40:12;;;;;;;14.17;7.03;;;;;;;;;;5060469;28;20217;-75
2023/12/04 13:45:23;;;;;;;13.00;7.23;;;;;;;;;;5058484;28;20220;-75
2023/12/04 13:47:50;;;;;;;18.27;6.97;;;;;;;;;;5055842;28;20172;-76
2023/12/04 13:50:16;;;;;;;13.37;6.43;;;;;;;;;;5070218;28;20217;-76
2023/12/04 13:52:42;;;;;;;12.97;7.00;;;;;;;;;;5057709;28;20206;-75
2023/12/04 13:55:34;;;;;;;11.97;6.10;;;;;;;;;;5062882;28;20590;-75
2023/12/04 14:00:26;;;;;;;15.57;7.53;;;;;;;;;;5055330;28;20181;-76
2023/12/04 14:02:53;;;;;;;16.00;7.80;;;;;;;;;;5060833;28;20179;-75
2023/12/04 14:05:21;;;;;;;13.63;6.67;;;;;;;;;;5058829;28;20218;-76
2023/12/04 14:07:47;;;;;;;13.97;7.10;;;;;;;;;;5054643;28;20312;-75
2023/12/04 14:10:14;;;;;;;11.87;6.33;;;;;;;;;;5073531;28;20744;-75
2023/12/04 14:12:40;;;;;;;13.00;6.63;;;;;;;;;;5072749;28;20222;-74
2023/12/04 14:15:06;;;;;;;15.07;7.60;;;;;;;;;;5062105;28;20830;-76
2023/12/04 14:17:33;;;;;;;15.97;7.13;;;;;;;;;;5058233;28;20222;-75
2023/12/04 14:19:59;;;;;;;14.40;7.33;;;;;;;;;;5057414;28;20200;-75
2023/12/04 14:22:26;;;;;;;15.33;6.80;;;;;;;;;;5057481;28;20649;-74
2023/12/04 14:24:52;;;;;;;16.57;6.77;;;;;;;;;;5045160;28;20280;-76
2023/12/04 14:27:18;;;;;;;13.50;7.60;;;;;;;;;;5040909;28;20212;-75